Bryn Mawr, CA (92318)

8:10 AM PST on February 28, 2015 (GMT -0800)
Loma Linda | Change Station
CLOSE
Current Station
Personal Weather Station
Location: Loma Linda, CA
Elevation: 1240 ft
Nearby Weather Stations

Elev 1240 ft 34.04 °N, 117.22 °W | Updated 35 seconds ago

Mostly Cloudy
Mostly Cloudy
54.9 °F
Feels Like 54.9 °F
N
2.0
Wind Variable Wind from SSE
Gusts 7.0 mph

Today
High -- | Low -- °F
--% Chance of Precip.
Yesterday
High -- | Low -- °F
Precip. -- in
6:19 AM 5:44 PM
Waxing Gibbous, 78% visible
Pressure 29.84 in
Visibility 7.0 miles
Clouds Scattered Clouds 2500 ft
Mostly Cloudy 4500 ft
Dew Point 46 °F
Humidity 72%
Rainfall 0.00 in
Snow Depth Not available.
UV 1 out of 12
Pollen 8.50 out of 12
Air Quality Not available.
Flu Activity Not available.
METAR KSBD 281545Z 00000KT 7SM SCT025 BKN045 10/07 A2984

More Conditions Fewer Conditions

Pressure 29.84 in
Visibility 7.0 miles
Clouds Scattered Clouds 2500 ft
Mostly Cloudy 4500 ft
Dew Point 46 °F
Humidity 72%
Rainfall 0.00 in
Snow Depth Not available.
UV 1 out of 12
Pollen 8.50 out of 12
Air Quality Not available.
Flu Activity Not available.
METAR KSBD 281545Z 00000KT 7SM SCT025 BKN045 10/07 A2984

More Conditions Fewer Conditions

10-Day Weather Forecast

Almanac

Astronomy

Feb. 28, 2015 Rise Set
Actual Time
Civil Twilight
Nautical Twilight
Astronomical Twilight
Moon
Length of Visible Light
Length of Day
Tomorrow will be .
, % of the Moon is Illuminated

Today's Extremes

State Highs State Lows

Community

WunderPhotos

Upload Photos

1,801,072 photos uploaded!

WunderBlogs® & News

Nearby

Air Quality

  Air Quality AQ Index Pollutant
Not available.

Snow Depth

Station Depth Elevation

Earthquake Activity

City Distance Mag. Time & Date
Minimum magnitude displayed is 2.5.

Coastal Water Temperatures

Place Temperature

Nearby Weather Stations